sensor_id;sensor_type;location;lat;lon;timestamp;P1;durP1;ratioP1;P2;durP2;ratioP2
49051;SDS011;34866;48.670;18.260;2023-03-01T00:01:25;21.80;;;11.52;;
49051;SDS011;34866;48.670;18.260;2023-03-01T00:03:53;30.83;;;9.85;;
49051;SDS011;34866;48.670;18.260;2023-03-01T00:06:22;23.17;;;9.32;;
49051;SDS011;34866;48.670;18.260;2023-03-01T00:08:49;36.25;;;12.50;;
49051;SDS011;34866;48.670;18.260;2023-03-01T00:11:16;20.05;;;9.88;;
49051;SDS011;34866;48.670;18.260;2023-03-01T00:13:50;11.23;;;7.10;;
49051;SDS011;34866;48.670;18.260;2023-03-01T00:16:20;25.17;;;12.30;;
49051;SDS011;34866;48.670;18.260;2023-03-01T00:18:48;22.92;;;11.02;;
49051;SDS011;34866;48.670;18.260;2023-03-01T00:21:15;20.83;;;10.45;;
49051;SDS011;34866;48.670;18.260;2023-03-01T00:23:41;29.20;;;12.90;;
49051;SDS011;34866;48.670;18.260;2023-03-01T00:26:12;22.95;;;10.95;;
49051;SDS011;34866;48.670;18.260;2023-03-01T00:28:39;27.83;;;11.45;;
49051;SDS011;34866;48.670;18.260;2023-03-01T00:33:52;27.48;;;12.10;;
49051;SDS011;34866;48.670;18.260;2023-03-01T00:36:22;19.23;;;10.40;;
49051;SDS011;34866;48.670;18.260;2023-03-01T00:38:50;18.60;;;9.55;;
49051;SDS011;34866;48.670;18.260;2023-03-01T00:41:16;20.38;;;10.55;;
49051;SDS011;34866;48.670;18.260;2023-03-01T00:43:43;20.33;;;11.43;;
49051;SDS011;34866;48.670;18.260;2023-03-01T00:46:11;23.75;;;11.82;;
49051;SDS011;34866;48.670;18.260;2023-03-01T00:48:39;23.05;;;10.55;;
49051;SDS011;34866;48.670;18.260;2023-03-01T00:51:06;21.70;;;10.45;;
49051;SDS011;34866;48.670;18.260;2023-03-01T00:53:32;27.20;;;11.70;;
49051;SDS011;34866;48.670;18.260;2023-03-01T00:55:58;23.70;;;11.70;;
49051;SDS011;34866;48.670;18.260;2023-03-01T00:58:24;26.05;;;14.52;;
49051;SDS011;34866;48.670;18.260;2023-03-01T01:00:49;21.75;;;13.05;;
49051;SDS011;34866;48.670;18.260;2023-03-01T01:03:15;31.30;;;14.63;;
49051;SDS011;34866;48.670;18.260;2023-03-01T01:05:41;29.35;;;16.38;;
49051;SDS011;34866;48.670;18.260;2023-03-01T01:08:06;37.47;;;15.55;;
49051;SDS011;34866;48.670;18.260;2023-03-01T01:10:33;19.70;;;13.10;;
49051;SDS011;34866;48.670;18.260;2023-03-01T01:13:00;22.58;;;10.73;;
49051;SDS011;34866;48.670;18.260;2023-03-01T01:15:26;27.60;;;11.35;;
49051;SDS011;34866;48.670;18.260;2023-03-01T01:17:51;24.50;;;12.77;;
49051;SDS011;34866;48.670;18.260;2023-03-01T01:20:17;27.30;;;12.75;;
49051;SDS011;34866;48.670;18.260;2023-03-01T01:22:43;20.27;;;9.98;;
49051;SDS011;34866;48.670;18.260;2023-03-01T01:25:09;35.53;;;14.50;;
49051;SDS011;34866;48.670;18.260;2023-03-01T01:27:35;28.75;;;12.18;;
49051;SDS011;34866;48.670;18.260;2023-03-01T01:30:01;27.52;;;11.98;;
49051;SDS011;34866;48.670;18.260;2023-03-01T01:32:28;28.70;;;12.60;;
49051;SDS011;34866;48.670;18.260;2023-03-01T01:34:54;20.50;;;10.25;;
49051;SDS011;34866;48.670;18.260;2023-03-01T01:37:20;25.10;;;9.55;;
49051;SDS011;34866;48.670;18.260;2023-03-01T01:39:46;20.73;;;11.82;;
49051;SDS011;34866;48.670;18.260;2023-03-01T01:42:15;26.73;;;10.43;;
49051;SDS011;34866;48.670;18.260;2023-03-01T01:44:42;20.50;;;9.38;;
49051;SDS011;34866;48.670;18.260;2023-03-01T01:47:17;24.55;;;9.57;;
49051;SDS011;34866;48.670;18.260;2023-03-01T01:52:26;23.83;;;10.57;;
49051;SDS011;34866;48.670;18.260;2023-03-01T01:54:58;25.30;;;9.43;;
49051;SDS011;34866;48.670;18.260;2023-03-01T01:57:32;20.05;;;8.85;;
49051;SDS011;34866;48.670;18.260;2023-03-01T02:00:04;22.55;;;8.45;;
49051;SDS011;34866;48.670;18.260;2023-03-01T02:02:36;17.75;;;8.02;;
49051;SDS011;34866;48.670;18.260;2023-03-01T02:05:05;22.40;;;9.75;;
49051;SDS011;34866;48.670;18.260;2023-03-01T02:07:42;12.77;;;6.45;;
49051;SDS011;34866;48.670;18.260;2023-03-01T02:10:08;17.45;;;7.13;;
49051;SDS011;34866;48.670;18.260;2023-03-01T02:12:35;24.83;;;9.77;;
49051;SDS011;34866;48.670;18.260;2023-03-01T02:15:04;22.23;;;7.97;;
49051;SDS011;34866;48.670;18.260;2023-03-01T02:17:30;21.02;;;8.60;;
49051;SDS011;34866;48.670;18.260;2023-03-01T02:22:59;18.23;;;9.10;;
49051;SDS011;34866;48.670;18.260;2023-03-01T02:30:44;19.58;;;9.80;;
49051;SDS011;34866;48.670;18.260;2023-03-01T02:33:30;14.43;;;7.28;;
49051;SDS011;34866;48.670;18.260;2023-03-01T02:36:01;14.70;;;7.68;;
49051;SDS011;34866;48.670;18.260;2023-03-01T02:38:31;16.73;;;8.50;;
49051;SDS011;34866;48.670;18.260;2023-03-01T02:40:57;17.23;;;7.18;;
49051;SDS011;34866;48.670;18.260;2023-03-01T02:43:27;25.45;;;10.02;;
49051;SDS011;34866;48.670;18.260;2023-03-01T02:45:57;21.30;;;8.77;;
49051;SDS011;34866;48.670;18.260;2023-03-01T02:48:26;21.73;;;9.32;;
49051;SDS011;34866;48.670;18.260;2023-03-01T02:51:07;23.05;;;10.55;;
49051;SDS011;34866;48.670;18.260;2023-03-01T02:56:35;19.33;;;9.77;;
49051;SDS011;34866;48.670;18.260;2023-03-01T02:59:01;46.08;;;13.95;;
49051;SDS011;34866;48.670;18.260;2023-03-01T03:01:28;25.02;;;11.57;;
49051;SDS011;34866;48.670;18.260;2023-03-01T03:04:06;21.88;;;10.32;;
49051;SDS011;34866;48.670;18.260;2023-03-01T03:06:34;31.50;;;12.32;;
49051;SDS011;34866;48.670;18.260;2023-03-01T03:09:00;55.63;;;15.50;;
49051;SDS011;34866;48.670;18.260;2023-03-01T03:11:27;35.38;;;14.00;;
49051;SDS011;34866;48.670;18.260;2023-03-01T03:13:53;28.83;;;12.10;;
49051;SDS011;34866;48.670;18.260;2023-03-01T03:16:19;31.48;;;12.27;;
49051;SDS011;34866;48.670;18.260;2023-03-01T03:18:45;35.50;;;11.38;;
49051;SDS011;34866;48.670;18.260;2023-03-01T03:21:12;29.67;;;11.43;;
49051;SDS011;34866;48.670;18.260;2023-03-01T03:23:39;22.05;;;11.65;;
49051;SDS011;34866;48.670;18.260;2023-03-01T03:26:05;34.25;;;9.85;;
49051;SDS011;34866;48.670;18.260;2023-03-01T03:28:31;44.63;;;11.88;;
49051;SDS011;34866;48.670;18.260;2023-03-01T03:30:59;20.52;;;10.52;;
49051;SDS011;34866;48.670;18.260;2023-03-01T03:33:29;23.20;;;10.10;;
49051;SDS011;34866;48.670;18.260;2023-03-01T03:35:55;24.85;;;8.82;;
49051;SDS011;34866;48.670;18.260;2023-03-01T03:38:21;28.77;;;11.20;;
49051;SDS011;34866;48.670;18.260;2023-03-01T03:43:33;23.33;;;8.82;;
49051;SDS011;34866;48.670;18.260;2023-03-01T03:46:00;26.08;;;10.13;;
49051;SDS011;34866;48.670;18.260;2023-03-01T03:48:30;33.83;;;10.68;;
49051;SDS011;34866;48.670;18.260;2023-03-01T03:51:00;13.73;;;7.22;;
49051;SDS011;34866;48.670;18.260;2023-03-01T03:53:27;15.90;;;9.98;;
49051;SDS011;34866;48.670;18.260;2023-03-01T03:55:54;17.27;;;8.52;;
49051;SDS011;34866;48.670;18.260;2023-03-01T03:58:21;21.20;;;8.63;;
49051;SDS011;34866;48.670;18.260;2023-03-01T04:00:49;19.42;;;7.57;;
49051;SDS011;34866;48.670;18.260;2023-03-01T04:03:18;18.05;;;9.98;;
49051;SDS011;34866;48.670;18.260;2023-03-01T04:05:45;28.00;;;10.25;;
49051;SDS011;34866;48.670;18.260;2023-03-01T04:08:11;18.50;;;8.77;;
49051;SDS011;34866;48.670;18.260;2023-03-01T04:10:41;17.60;;;8.57;;
49051;SDS011;34866;48.670;18.260;2023-03-01T04:13:10;19.92;;;9.55;;
49051;SDS011;34866;48.670;18.260;2023-03-01T04:15:37;19.55;;;9.52;;
49051;SDS011;34866;48.670;18.260;2023-03-01T04:18:04;21.35;;;7.55;;
49051;SDS011;34866;48.670;18.260;2023-03-01T04:20:31;21.67;;;7.80;;
49051;SDS011;34866;48.670;18.260;2023-03-01T04:25:39;16.65;;;7.57;;
49051;SDS011;34866;48.670;18.260;2023-03-01T04:28:06;27.73;;;9.55;;
49051;SDS011;34866;48.670;18.260;2023-03-01T04:30:33;17.73;;;8.95;;
49051;SDS011;34866;48.670;18.260;2023-03-01T04:33:01;20.80;;;9.85;;
49051;SDS011;34866;48.670;18.260;2023-03-01T04:35:28;18.08;;;7.28;;
49051;SDS011;34866;48.670;18.260;2023-03-01T04:37:55;17.10;;;7.63;;
49051;SDS011;34866;48.670;18.260;2023-03-01T04:40:21;22.85;;;10.13;;
49051;SDS011;34866;48.670;18.260;2023-03-01T04:42:46;15.85;;;9.57;;
49051;SDS011;34866;48.670;18.260;2023-03-01T04:45:12;13.98;;;8.80;;
49051;SDS011;34866;48.670;18.260;2023-03-01T04:47:42;17.55;;;9.85;;
49051;SDS011;34866;48.670;18.260;2023-03-01T04:50:12;23.95;;;10.40;;
49051;SDS011;34866;48.670;18.260;2023-03-01T04:52:42;25.63;;;9.50;;
49051;SDS011;34866;48.670;18.260;2023-03-01T04:55:09;16.75;;;7.45;;
49051;SDS011;34866;48.670;18.260;2023-03-01T04:57:35;18.55;;;8.93;;
49051;SDS011;34866;48.670;18.260;2023-03-01T05:00:02;27.48;;;10.57;;
49051;SDS011;34866;48.670;18.260;2023-03-01T05:02:45;13.65;;;6.78;;
49051;SDS011;34866;48.670;18.260;2023-03-01T05:05:13;24.27;;;9.75;;
49051;SDS011;34866;48.670;18.260;2023-03-01T05:07:39;15.65;;;7.63;;
49051;SDS011;34866;48.670;18.260;2023-03-01T05:10:05;17.33;;;8.95;;
49051;SDS011;34866;48.670;18.260;2023-03-01T05:12:31;30.10;;;8.90;;
49051;SDS011;34866;48.670;18.260;2023-03-01T05:14:57;12.88;;;6.95;;
49051;SDS011;34866;48.670;18.260;2023-03-01T05:17:23;17.35;;;10.40;;
49051;SDS011;34866;48.670;18.260;2023-03-01T05:19:49;18.75;;;8.85;;
49051;SDS011;34866;48.670;18.260;2023-03-01T05:22:15;21.10;;;9.55;;
49051;SDS011;34866;48.670;18.260;2023-03-01T05:24:44;22.10;;;8.98;;
49051;SDS011;34866;48.670;18.260;2023-03-01T05:27:11;13.20;;;7.07;;
49051;SDS011;34866;48.670;18.260;2023-03-01T05:29:36;15.93;;;7.13;;
49051;SDS011;34866;48.670;18.260;2023-03-01T05:32:04;21.15;;;7.35;;
49051;SDS011;34866;48.670;18.260;2023-03-01T05:34:31;14.43;;;7.88;;
49051;SDS011;34866;48.670;18.260;2023-03-01T05:36:59;15.68;;;7.13;;
49051;SDS011;34866;48.670;18.260;2023-03-01T05:39:26;18.13;;;9.80;;
49051;SDS011;34866;48.670;18.260;2023-03-01T05:41:56;14.38;;;7.13;;
49051;SDS011;34866;48.670;18.260;2023-03-01T05:44:24;14.88;;;8.02;;
49051;SDS011;34866;48.670;18.260;2023-03-01T05:46:50;20.60;;;8.63;;
49051;SDS011;34866;48.670;18.260;2023-03-01T05:49:16;14.27;;;7.70;;
49051;SDS011;34866;48.670;18.260;2023-03-01T05:51:43;14.25;;;8.63;;
49051;SDS011;34866;48.670;18.260;2023-03-01T05:54:12;18.75;;;7.68;;
49051;SDS011;34866;48.670;18.260;2023-03-01T05:56:38;23.10;;;8.68;;
49051;SDS011;34866;48.670;18.260;2023-03-01T05:59:06;20.42;;;7.40;;
49051;SDS011;34866;48.670;18.260;2023-03-01T06:01:32;21.33;;;9.10;;
49051;SDS011;34866;48.670;18.260;2023-03-01T06:03:59;17.15;;;8.90;;
49051;SDS011;34866;48.670;18.260;2023-03-01T06:06:25;17.77;;;8.57;;
49051;SDS011;34866;48.670;18.260;2023-03-01T06:08:51;19.33;;;7.38;;
49051;SDS011;34866;48.670;18.260;2023-03-01T06:11:17;19.88;;;8.68;;
49051;SDS011;34866;48.670;18.260;2023-03-01T06:13:44;15.77;;;6.95;;
49051;SDS011;34866;48.670;18.260;2023-03-01T06:16:10;15.05;;;7.82;;
49051;SDS011;34866;48.670;18.260;2023-03-01T06:18:37;17.48;;;7.13;;
49051;SDS011;34866;48.670;18.260;2023-03-01T06:21:03;14.07;;;6.43;;
49051;SDS011;34866;48.670;18.260;2023-03-01T06:23:30;13.40;;;5.82;;
49051;SDS011;34866;48.670;18.260;2023-03-01T06:25:56;10.77;;;5.35;;
49051;SDS011;34866;48.670;18.260;2023-03-01T06:28:21;12.57;;;6.63;;
49051;SDS011;34866;48.670;18.260;2023-03-01T06:30:49;15.23;;;6.28;;
49051;SDS011;34866;48.670;18.260;2023-03-01T06:33:17;18.10;;;6.32;;
49051;SDS011;34866;48.670;18.260;2023-03-01T06:35:45;12.00;;;6.13;;
49051;SDS011;34866;48.670;18.260;2023-03-01T06:38:11;18.80;;;6.82;;
49051;SDS011;34866;48.670;18.260;2023-03-01T06:40:40;16.27;;;7.38;;
49051;SDS011;34866;48.670;18.260;2023-03-01T06:43:06;13.18;;;7.05;;
49051;SDS011;34866;48.670;18.260;2023-03-01T06:45:32;22.48;;;8.10;;
49051;SDS011;34866;48.670;18.260;2023-03-01T06:48:04;13.55;;;8.38;;
49051;SDS011;34866;48.670;18.260;2023-03-01T06:50:31;21.23;;;7.00;;
49051;SDS011;34866;48.670;18.260;2023-03-01T06:52:57;13.05;;;7.03;;
49051;SDS011;34866;48.670;18.260;2023-03-01T06:55:23;20.58;;;8.45;;
49051;SDS011;34866;48.670;18.260;2023-03-01T06:57:53;11.80;;;7.03;;
49051;SDS011;34866;48.670;18.260;2023-03-01T07:00:21;14.18;;;6.13;;
49051;SDS011;34866;48.670;18.260;2023-03-01T07:02:47;19.48;;;8.30;;
49051;SDS011;34866;48.670;18.260;2023-03-01T07:05:12;15.30;;;7.63;;
49051;SDS011;34866;48.670;18.260;2023-03-01T07:07:38;19.30;;;7.88;;
49051;SDS011;34866;48.670;18.260;2023-03-01T07:10:04;21.90;;;7.93;;
49051;SDS011;34866;48.670;18.260;2023-03-01T07:12:30;15.93;;;7.53;;
49051;SDS011;34866;48.670;18.260;2023-03-01T07:14:56;20.15;;;8.70;;
49051;SDS011;34866;48.670;18.260;2023-03-01T07:17:22;15.45;;;7.75;;
49051;SDS011;34866;48.670;18.260;2023-03-01T07:19:47;44.20;;;8.98;;
49051;SDS011;34866;48.670;18.260;2023-03-01T07:22:13;21.90;;;9.40;;
49051;SDS011;34866;48.670;18.260;2023-03-01T07:24:39;18.50;;;8.02;;
49051;SDS011;34866;48.670;18.260;2023-03-01T07:27:06;16.55;;;8.05;;
49051;SDS011;34866;48.670;18.260;2023-03-01T07:29:32;16.58;;;8.60;;
49051;SDS011;34866;48.670;18.260;2023-03-01T07:31:59;14.18;;;7.13;;
49051;SDS011;34866;48.670;18.260;2023-03-01T07:34:25;19.45;;;8.57;;
49051;SDS011;34866;48.670;18.260;2023-03-01T07:36:50;21.40;;;9.88;;
49051;SDS011;34866;48.670;18.260;2023-03-01T07:39:17;17.73;;;8.65;;
49051;SDS011;34866;48.670;18.260;2023-03-01T07:41:43;32.95;;;9.68;;
49051;SDS011;34866;48.670;18.260;2023-03-01T07:44:08;29.10;;;10.88;;
49051;SDS011;34866;48.670;18.260;2023-03-01T07:46:34;27.80;;;9.95;;
49051;SDS011;34866;48.670;18.260;2023-03-01T07:48:59;24.17;;;11.57;;
49051;SDS011;34866;48.670;18.260;2023-03-01T07:51:25;17.30;;;7.95;;
49051;SDS011;34866;48.670;18.260;2023-03-01T07:53:51;24.08;;;10.75;;
49051;SDS011;34866;48.670;18.260;2023-03-01T07:56:17;29.50;;;9.95;;
49051;SDS011;34866;48.670;18.260;2023-03-01T07:58:45;26.10;;;9.60;;
49051;SDS011;34866;48.670;18.260;2023-03-01T08:01:12;17.95;;;8.30;;
49051;SDS011;34866;48.670;18.260;2023-03-01T08:03:39;23.88;;;9.50;;
49051;SDS011;34866;48.670;18.260;2023-03-01T08:06:06;24.10;;;9.15;;
49051;SDS011;34866;48.670;18.260;2023-03-01T08:08:34;20.00;;;9.52;;
49051;SDS011;34866;48.670;18.260;2023-03-01T08:11:01;24.73;;;8.65;;
49051;SDS011;34866;48.670;18.260;2023-03-01T08:13:28;22.33;;;8.60;;
49051;SDS011;34866;48.670;18.260;2023-03-01T08:15:54;16.90;;;8.68;;
49051;SDS011;34866;48.670;18.260;2023-03-01T08:18:26;17.67;;;8.55;;
49051;SDS011;34866;48.670;18.260;2023-03-01T08:20:52;19.83;;;9.63;;
49051;SDS011;34866;48.670;18.260;2023-03-01T08:23:18;21.33;;;9.60;;
49051;SDS011;34866;48.670;18.260;2023-03-01T08:25:43;25.52;;;9.98;;
49051;SDS011;34866;48.670;18.260;2023-03-01T08:28:09;36.75;;;10.93;;
49051;SDS011;34866;48.670;18.260;2023-03-01T08:30:34;32.28;;;10.88;;
49051;SDS011;34866;48.670;18.260;2023-03-01T08:33:00;25.60;;;10.43;;
49051;SDS011;34866;48.670;18.260;2023-03-01T08:35:26;19.52;;;8.82;;
49051;SDS011;34866;48.670;18.260;2023-03-01T08:37:52;26.45;;;11.70;;
49051;SDS011;34866;48.670;18.260;2023-03-01T08:40:17;28.75;;;11.38;;
49051;SDS011;34866;48.670;18.260;2023-03-01T08:42:43;23.55;;;10.90;;
49051;SDS011;34866;48.670;18.260;2023-03-01T08:45:09;23.73;;;10.85;;
49051;SDS011;34866;48.670;18.260;2023-03-01T08:47:35;34.55;;;11.30;;
49051;SDS011;34866;48.670;18.260;2023-03-01T08:50:03;22.30;;;10.82;;
49051;SDS011;34866;48.670;18.260;2023-03-01T08:52:29;21.13;;;9.68;;
49051;SDS011;34866;48.670;18.260;2023-03-01T08:54:55;23.40;;;10.10;;
49051;SDS011;34866;48.670;18.260;2023-03-01T08:57:21;29.23;;;13.18;;
49051;SDS011;34866;48.670;18.260;2023-03-01T08:59:49;25.92;;;11.05;;
49051;SDS011;34866;48.670;18.260;2023-03-01T09:02:15;25.42;;;11.95;;
49051;SDS011;34866;48.670;18.260;2023-03-01T09:04:43;23.92;;;10.27;;
49051;SDS011;34866;48.670;18.260;2023-03-01T09:07:09;25.00;;;9.70;;
49051;SDS011;34866;48.670;18.260;2023-03-01T09:09:36;21.65;;;8.90;;
49051;SDS011;34866;48.670;18.260;2023-03-01T09:12:03;23.58;;;10.85;;
49051;SDS011;34866;48.670;18.260;2023-03-01T09:14:29;24.80;;;9.15;;
49051;SDS011;34866;48.670;18.260;2023-03-01T09:16:55;23.50;;;8.45;;
49051;SDS011;34866;48.670;18.260;2023-03-01T09:19:21;19.77;;;9.98;;
49051;SDS011;34866;48.670;18.260;2023-03-01T09:21:47;18.42;;;8.80;;
49051;SDS011;34866;48.670;18.260;2023-03-01T09:24:19;20.08;;;9.80;;
49051;SDS011;34866;48.670;18.260;2023-03-01T09:26:46;18.20;;;9.75;;
49051;SDS011;34866;48.670;18.260;2023-03-01T09:29:12;21.33;;;11.23;;
49051;SDS011;34866;48.670;18.260;2023-03-01T09:31:39;25.23;;;9.60;;
49051;SDS011;34866;48.670;18.260;2023-03-01T09:34:05;26.65;;;10.57;;
49051;SDS011;34866;48.670;18.260;2023-03-01T09:36:38;22.58;;;10.13;;
49051;SDS011;34866;48.670;18.260;2023-03-01T09:39:10;19.45;;;9.20;;
49051;SDS011;34866;48.670;18.260;2023-03-01T09:44:31;20.27;;;10.35;;
49051;SDS011;34866;48.670;18.260;2023-03-01T09:46:58;28.08;;;10.50;;
49051;SDS011;34866;48.670;18.260;2023-03-01T09:49:25;24.08;;;10.70;;
49051;SDS011;34866;48.670;18.260;2023-03-01T09:52:06;25.88;;;10.43;;
49051;SDS011;34866;48.670;18.260;2023-03-01T09:55:22;22.77;;;10.40;;
49051;SDS011;34866;48.670;18.260;2023-03-01T09:58:04;22.23;;;10.00;;
49051;SDS011;34866;48.670;18.260;2023-03-01T10:04:16;22.33;;;11.02;;
49051;SDS011;34866;48.670;18.260;2023-03-01T10:07:15;24.15;;;9.75;;
49051;SDS011;34866;48.670;18.260;2023-03-01T10:09:52;22.13;;;10.23;;
49051;SDS011;34866;48.670;18.260;2023-03-01T10:12:18;28.92;;;10.55;;
49051;SDS011;34866;48.670;18.260;2023-03-01T10:18:11;17.20;;;8.88;;
49051;SDS011;34866;48.670;18.260;2023-03-01T10:20:44;16.10;;;7.35;;
49051;SDS011;34866;48.670;18.260;2023-03-01T10:23:16;16.35;;;8.30;;
49051;SDS011;34866;48.670;18.260;2023-03-01T10:25:55;17.58;;;9.10;;
49051;SDS011;34866;48.670;18.260;2023-03-01T10:28:54;18.02;;;8.20;;
49051;SDS011;34866;48.670;18.260;2023-03-01T10:31:32;19.02;;;7.95;;
49051;SDS011;34866;48.670;18.260;2023-03-01T10:34:13;19.35;;;7.93;;
49051;SDS011;34866;48.670;18.260;2023-03-01T10:36:44;18.75;;;7.47;;
49051;SDS011;34866;48.670;18.260;2023-03-01T10:42:02;16.42;;;6.75;;
49051;SDS011;34866;48.670;18.260;2023-03-01T10:47:22;20.02;;;8.77;;
49051;SDS011;34866;48.670;18.260;2023-03-01T10:49:57;15.75;;;6.93;;
49051;SDS011;34866;48.670;18.260;2023-03-01T10:52:32;13.38;;;6.05;;
49051;SDS011;34866;48.670;18.260;2023-03-01T10:57:42;16.88;;;6.95;;
49051;SDS011;34866;48.670;18.260;2023-03-01T11:02:46;12.82;;;6.72;;
49051;SDS011;34866;48.670;18.260;2023-03-01T11:05:26;15.90;;;6.97;;
49051;SDS011;34866;48.670;18.260;2023-03-01T11:07:56;13.85;;;6.55;;
49051;SDS011;34866;48.670;18.260;2023-03-01T11:10:29;15.43;;;5.85;;
49051;SDS011;34866;48.670;18.260;2023-03-01T11:13:08;18.08;;;6.45;;
49051;SDS011;34866;48.670;18.260;2023-03-01T11:15:37;12.52;;;6.55;;
49051;SDS011;34866;48.670;18.260;2023-03-01T11:18:03;13.68;;;6.70;;
49051;SDS011;34866;48.670;18.260;2023-03-01T11:20:37;13.07;;;6.07;;
49051;SDS011;34866;48.670;18.260;2023-03-01T11:23:04;10.80;;;5.47;;
49051;SDS011;34866;48.670;18.260;2023-03-01T11:25:39;11.35;;;5.72;;
49051;SDS011;34866;48.670;18.260;2023-03-01T11:28:12;12.32;;;6.40;;
49051;SDS011;34866;48.670;18.260;2023-03-01T11:30:46;14.77;;;6.30;;
49051;SDS011;34866;48.670;18.260;2023-03-01T11:36:07;11.60;;;5.25;;
49051;SDS011;34866;48.670;18.260;2023-03-01T11:38:45;11.13;;;5.53;;
49051;SDS011;34866;48.670;18.260;2023-03-01T11:57:31;11.27;;;4.82;;
49051;SDS011;34866;48.670;18.260;2023-03-01T12:03:33;9.02;;;5.00;;
49051;SDS011;34866;48.670;18.260;2023-03-01T12:11:55;9.02;;;4.82;;
49051;SDS011;34866;48.670;18.260;2023-03-01T12:45:50;9.57;;;4.05;;
49051;SDS011;34866;48.670;18.260;2023-03-01T12:51:39;16.25;;;4.15;;
49051;SDS011;34866;48.670;18.260;2023-03-01T12:54:14;8.48;;;4.05;;
49051;SDS011;34866;48.670;18.260;2023-03-01T12:56:51;8.70;;;4.68;;
49051;SDS011;34866;48.670;18.260;2023-03-01T13:02:48;8.27;;;3.53;;
49051;SDS011;34866;48.670;18.260;2023-03-01T13:05:25;9.02;;;3.65;;
49051;SDS011;34866;48.670;18.260;2023-03-01T13:08:16;11.18;;;3.33;;
49051;SDS011;34866;48.670;18.260;2023-03-01T13:11:03;12.30;;;3.42;;
49051;SDS011;34866;48.670;18.260;2023-03-01T13:13:30;6.90;;;3.10;;
49051;SDS011;34866;48.670;18.260;2023-03-01T13:15:56;7.32;;;3.13;;
49051;SDS011;34866;48.670;18.260;2023-03-01T13:18:41;7.72;;;3.05;;
49051;SDS011;34866;48.670;18.260;2023-03-01T13:21:07;9.95;;;3.55;;
49051;SDS011;34866;48.670;18.260;2023-03-01T13:23:35;7.53;;;3.03;;
49051;SDS011;34866;48.670;18.260;2023-03-01T13:31:09;7.00;;;3.13;;
49051;SDS011;34866;48.670;18.260;2023-03-01T13:33:56;9.43;;;3.55;;
49051;SDS011;34866;48.670;18.260;2023-03-01T13:38:55;6.10;;;2.65;;
49051;SDS011;34866;48.670;18.260;2023-03-01T13:41:52;6.03;;;3.22;;
49051;SDS011;34866;48.670;18.260;2023-03-01T13:47:15;6.95;;;2.88;;
49051;SDS011;34866;48.670;18.260;2023-03-01T13:49:44;5.10;;;2.08;;
49051;SDS011;34866;48.670;18.260;2023-03-01T13:55:15;4.03;;;1.65;;
49051;SDS011;34866;48.670;18.260;2023-03-01T13:57:54;7.40;;;1.98;;
49051;SDS011;34866;48.670;18.260;2023-03-01T14:00:38;7.95;;;2.10;;
49051;SDS011;34866;48.670;18.260;2023-03-01T14:05:56;6.40;;;1.35;;
49051;SDS011;34866;48.670;18.260;2023-03-01T14:08:25;4.75;;;1.10;;
49051;SDS011;34866;48.670;18.260;2023-03-01T14:23:52;11.80;;;2.70;;
49051;SDS011;34866;48.670;18.260;2023-03-01T14:26:24;9.00;;;1.70;;
49051;SDS011;34866;48.670;18.260;2023-03-01T14:28:50;5.40;;;1.92;;
49051;SDS011;34866;48.670;18.260;2023-03-01T14:31:30;6.10;;;2.28;;
49051;SDS011;34866;48.670;18.260;2023-03-01T14:33:59;7.57;;;2.47;;
49051;SDS011;34866;48.670;18.260;2023-03-01T14:36:27;10.23;;;2.17;;
49051;SDS011;34866;48.670;18.260;2023-03-01T14:38:55;4.75;;;1.73;;
49051;SDS011;34866;48.670;18.260;2023-03-01T14:41:24;4.57;;;1.60;;
49051;SDS011;34866;48.670;18.260;2023-03-01T14:43:58;6.82;;;1.58;;
49051;SDS011;34866;48.670;18.260;2023-03-01T14:46:34;4.25;;;1.65;;
49051;SDS011;34866;48.670;18.260;2023-03-01T14:49:03;3.45;;;1.42;;
49051;SDS011;34866;48.670;18.260;2023-03-01T14:51:38;5.85;;;1.60;;
49051;SDS011;34866;48.670;18.260;2023-03-01T14:54:23;12.52;;;2.30;;
49051;SDS011;34866;48.670;18.260;2023-03-01T14:57:00;6.22;;;1.45;;
49051;SDS011;34866;48.670;18.260;2023-03-01T14:59:27;5.15;;;1.42;;
49051;SDS011;34866;48.670;18.260;2023-03-01T15:01:54;8.90;;;2.20;;
49051;SDS011;34866;48.670;18.260;2023-03-01T15:04:22;5.25;;;1.48;;
49051;SDS011;34866;48.670;18.260;2023-03-01T15:06:52;12.27;;;4.03;;
49051;SDS011;34866;48.670;18.260;2023-03-01T15:09:19;6.20;;;1.83;;
49051;SDS011;34866;48.670;18.260;2023-03-01T15:11:46;4.10;;;1.40;;
49051;SDS011;34866;48.670;18.260;2023-03-01T15:14:28;5.07;;;1.73;;
49051;SDS011;34866;48.670;18.260;2023-03-01T15:17:14;7.43;;;1.77;;
49051;SDS011;34866;48.670;18.260;2023-03-01T15:20:02;5.80;;;2.53;;
49051;SDS011;34866;48.670;18.260;2023-03-01T15:22:30;4.63;;;1.40;;
49051;SDS011;34866;48.670;18.260;2023-03-01T15:24:56;7.55;;;1.80;;
49051;SDS011;34866;48.670;18.260;2023-03-01T15:27:22;5.30;;;1.65;;
49051;SDS011;34866;48.670;18.260;2023-03-01T15:29:54;8.48;;;2.53;;
49051;SDS011;34866;48.670;18.260;2023-03-01T15:34:59;4.22;;;1.80;;
49051;SDS011;34866;48.670;18.260;2023-03-01T15:40:19;5.10;;;1.90;;
49051;SDS011;34866;48.670;18.260;2023-03-01T15:45:25;8.25;;;1.90;;
49051;SDS011;34866;48.670;18.260;2023-03-01T15:47:54;5.40;;;2.00;;
49051;SDS011;34866;48.670;18.260;2023-03-01T15:50:28;3.80;;;1.80;;
49051;SDS011;34866;48.670;18.260;2023-03-01T15:52:56;7.90;;;1.90;;
49051;SDS011;34866;48.670;18.260;2023-03-01T15:58:00;5.57;;;1.50;;
49051;SDS011;34866;48.670;18.260;2023-03-01T16:00:29;6.32;;;1.83;;
49051;SDS011;34866;48.670;18.260;2023-03-01T16:02:55;13.20;;;2.40;;
49051;SDS011;34866;48.670;18.260;2023-03-01T16:07:49;9.80;;;2.45;;
49051;SDS011;34866;48.670;18.260;2023-03-01T16:10:16;8.10;;;2.50;;
49051;SDS011;34866;48.670;18.260;2023-03-01T16:12:42;17.58;;;3.25;;
49051;SDS011;34866;48.670;18.260;2023-03-01T16:15:12;12.02;;;3.40;;
49051;SDS011;34866;48.670;18.260;2023-03-01T16:17:44;14.20;;;2.95;;
49051;SDS011;34866;48.670;18.260;2023-03-01T16:20:13;5.15;;;2.25;;
49051;SDS011;34866;48.670;18.260;2023-03-01T16:22:42;6.97;;;2.08;;
49051;SDS011;34866;48.670;18.260;2023-03-01T16:25:09;7.35;;;2.65;;
49051;SDS011;34866;48.670;18.260;2023-03-01T16:27:43;4.32;;;2.17;;
49051;SDS011;34866;48.670;18.260;2023-03-01T16:30:10;5.20;;;1.98;;
49051;SDS011;34866;48.670;18.260;2023-03-01T16:32:40;4.35;;;2.03;;
49051;SDS011;34866;48.670;18.260;2023-03-01T16:35:08;8.98;;;3.13;;
49051;SDS011;34866;48.670;18.260;2023-03-01T16:37:35;5.25;;;2.53;;
49051;SDS011;34866;48.670;18.260;2023-03-01T16:40:05;7.03;;;3.33;;
49051;SDS011;34866;48.670;18.260;2023-03-01T16:42:38;13.00;;;4.15;;
49051;SDS011;34866;48.670;18.260;2023-03-01T16:45:04;15.55;;;4.88;;
49051;SDS011;34866;48.670;18.260;2023-03-01T16:47:32;13.63;;;5.00;;
49051;SDS011;34866;48.670;18.260;2023-03-01T16:49:58;20.05;;;6.57;;
49051;SDS011;34866;48.670;18.260;2023-03-01T16:52:24;10.27;;;4.47;;
49051;SDS011;34866;48.670;18.260;2023-03-01T16:54:49;16.83;;;5.10;;
49051;SDS011;34866;48.670;18.260;2023-03-01T16:57:15;16.80;;;4.13;;
49051;SDS011;34866;48.670;18.260;2023-03-01T16:59:41;12.40;;;3.92;;
49051;SDS011;34866;48.670;18.260;2023-03-01T17:02:10;10.63;;;3.03;;
49051;SDS011;34866;48.670;18.260;2023-03-01T17:04:42;10.75;;;3.55;;